createdAt,value
2022-08-22T00:00:14.685Z,22.74
2022-08-22T00:03:00.779Z,23.45
2022-08-22T00:05:47.381Z,22.77
2022-08-22T00:10:58.362Z,23.12
2022-08-22T00:16:10.546Z,23.22
2022-08-22T00:21:15.164Z,22.92
2022-08-22T00:26:25.240Z,22.85
2022-08-22T00:31:42.821Z,23.07
2022-08-22T00:37:00.868Z,23.49
2022-08-22T00:42:37.130Z,23.46
2022-08-22T00:47:41.354Z,23.55
2022-08-22T00:53:04.258Z,23.68
2022-08-22T00:58:11.633Z,23.55
2022-08-22T01:03:34.068Z,23.18
2022-08-22T01:08:44.174Z,23.39
2022-08-22T01:14:16.333Z,23.34
2022-08-22T01:19:49.977Z,23.45
2022-08-22T01:25:13.169Z,23.05
2022-08-22T01:30:51.727Z,23.50
2022-08-22T01:36:21.593Z,23.72
2022-08-22T01:41:52.247Z,23.60
2022-08-22T01:47:44.072Z,22.95
2022-08-22T01:52:48.482Z,23.00
2022-08-22T01:58:00.784Z,23.19
2022-08-22T02:03:21.919Z,23.41
2022-08-22T02:08:46.640Z,22.83
2022-08-22T02:14:20.151Z,23.62
2022-08-22T02:19:41.280Z,23.51
2022-08-22T02:24:44.845Z,23.47
2022-08-22T02:30:10.487Z,23.59
2022-08-22T02:35:37.927Z,23.59
2022-08-22T02:40:44.271Z,23.66
2022-08-22T02:46:08.410Z,23.81
2022-08-22T02:51:27.915Z,23.04
2022-08-22T02:56:45.554Z,22.99
2022-08-22T03:01:57.542Z,22.91
2022-08-22T03:07:08.675Z,23.03
2022-08-22T03:12:49.380Z,23.42
2022-08-22T03:18:21.915Z,23.28
2022-08-22T03:23:42.607Z,23.18
2022-08-22T03:28:58.983Z,23.13
2022-08-22T03:34:22.636Z,23.29
2022-08-22T03:39:45.093Z,23.07
2022-08-22T03:45:19.478Z,23.33
2022-08-22T03:50:42.828Z,23.29
2022-08-22T03:55:50.193Z,23.19
2022-08-22T04:01:19.686Z,23.22
2022-08-22T04:06:39.556Z,23.36
2022-08-22T04:11:53.559Z,23.30
2022-08-22T04:17:32.469Z,23.39
2022-08-22T04:22:59.133Z,23.19
2022-08-22T04:28:22.645Z,23.27
2022-08-22T04:33:37.366Z,23.59
2022-08-22T04:39:01.787Z,23.15
2022-08-22T04:44:24.588Z,23.00
2022-08-22T04:49:22.895Z,23.32
2022-08-22T04:54:26.783Z,23.39
2022-08-22T04:59:26.452Z,23.28
2022-08-22T05:04:31.875Z,23.29
2022-08-22T05:09:36.326Z,23.39
2022-08-22T05:14:43.353Z,23.28
2022-08-22T05:19:47.330Z,23.39
2022-08-22T05:24:52.066Z,23.13
2022-08-22T05:30:18.651Z,23.28
2022-08-22T05:35:27.557Z,23.30
2022-08-22T05:40:30.389Z,23.52
2022-08-22T05:45:29.781Z,23.64
2022-08-22T05:50:40.921Z,23.91
2022-08-22T05:55:46.769Z,23.97
2022-08-22T06:00:49.468Z,23.83
2022-08-22T06:05:52.400Z,24.13
2022-08-22T06:10:59.591Z,24.10
2022-08-22T06:16:21.137Z,23.90
2022-08-22T06:21:23.900Z,24.13
2022-08-22T06:26:22.768Z,24.05
2022-08-22T06:31:30.965Z,24.08
2022-08-22T06:36:44.440Z,24.38
2022-08-22T06:42:16.855Z,24.56
2022-08-22T06:47:44.249Z,24.98
2022-08-22T06:53:06.159Z,25.21
2022-08-22T06:58:19.190Z,25.19
2022-08-22T07:03:37.869Z,25.40
2022-08-22T07:08:50.635Z,25.09
2022-08-22T07:14:09.247Z,25.39
2022-08-22T07:19:50.288Z,25.85
2022-08-22T07:24:56.827Z,25.63
2022-08-22T07:30:03.940Z,25.91
2022-08-22T07:35:24.522Z,25.76
2022-08-22T07:41:03.793Z,25.90
2022-08-22T07:46:23.270Z,25.91
2022-08-22T07:51:32.152Z,26.13
2022-08-22T07:56:37.618Z,26.29
2022-08-22T08:01:35.959Z,26.21
2022-08-22T08:06:34.857Z,26.53
2022-08-22T08:11:40.351Z,26.71
2022-08-22T08:16:58.101Z,27.22
2022-08-22T08:21:59.571Z,27.34
2022-08-22T08:27:24.520Z,27.23
2022-08-22T08:32:38.707Z,27.22
2022-08-22T08:37:55.557Z,27.36
2022-08-22T08:43:36.639Z,27.49
2022-08-22T08:49:17.714Z,27.22
2022-08-22T08:54:44.269Z,27.35
2022-08-22T09:00:13.437Z,26.97
2022-08-22T09:05:29.782Z,26.99
2022-08-22T09:10:31.662Z,26.90
2022-08-22T09:16:05.976Z,26.77
2022-08-22T09:21:27.944Z,26.22
2022-08-22T09:26:37.856Z,26.75
2022-08-22T09:31:59.682Z,27.07
2022-08-22T09:37:29.398Z,27.86
2022-08-22T09:42:46.419Z,27.53
2022-08-22T09:48:00.272Z,27.29
2022-08-22T09:53:24.137Z,27.85
2022-08-22T09:59:01.195Z,27.91
2022-08-22T10:04:24.885Z,28.44
2022-08-22T10:09:39.252Z,27.72
2022-08-22T10:15:15.186Z,28.92
2022-08-22T10:20:24.511Z,29.34
2022-08-22T10:25:26.060Z,30.28
2022-08-22T10:31:45.042Z,30.09
2022-08-22T10:36:39.693Z,29.93
2022-08-22T10:41:42.658Z,30.05
2022-08-22T10:47:02.257Z,30.27
2022-08-22T10:52:22.290Z,29.67
2022-08-22T10:57:38.974Z,30.52
2022-08-22T11:03:03.977Z,30.59
2022-08-22T11:08:18.791Z,30.52
2022-08-22T11:13:54.134Z,29.90
2022-08-22T11:19:20.591Z,29.52
2022-08-22T11:25:06.212Z,30.00
2022-08-22T11:30:18.279Z,30.10
2022-08-22T11:35:24.229Z,30.20
2022-08-22T11:40:38.656Z,29.86
2022-08-22T11:45:43.339Z,30.14
2022-08-22T11:50:53.809Z,30.47
2022-08-22T11:56:22.950Z,30.83
2022-08-22T12:01:51.433Z,30.70
2022-08-22T12:06:56.605Z,30.70
2022-08-22T12:12:23.722Z,30.99
2022-08-22T12:18:01.016Z,31.59
2022-08-22T12:24:00.840Z,31.77
2022-08-22T12:29:47.839Z,31.94
2022-08-22T12:35:14.057Z,31.91
2022-08-22T12:41:27.650Z,31.85
2022-08-22T12:47:24.891Z,31.85
2022-08-22T12:52:51.602Z,32.17
2022-08-22T12:58:14.736Z,32.53
2022-08-22T13:03:40.805Z,32.47
2022-08-22T13:08:47.822Z,32.55
2022-08-22T13:14:06.825Z,32.60
2022-08-22T13:19:16.770Z,32.55
2022-08-22T13:24:39.202Z,34.42
2022-08-22T13:30:00.153Z,35.71
2022-08-22T13:35:51.773Z,37.52
2022-08-22T13:40:52.978Z,38.00
2022-08-22T13:45:57.461Z,37.83
2022-08-22T13:51:14.664Z,37.54
2022-08-22T13:56:35.286Z,38.38
2022-08-22T14:01:50.185Z,38.73
2022-08-22T14:07:06.524Z,38.79
2022-08-22T14:12:33.269Z,37.88
2022-08-22T14:17:43.161Z,36.84
2022-08-22T14:22:46.269Z,36.47
2022-08-22T14:27:54.446Z,36.47
2022-08-22T14:33:02.907Z,34.94
2022-08-22T14:38:46.368Z,33.87
2022-08-22T14:43:51.014Z,33.45
2022-08-22T14:49:41.510Z,33.06
2022-08-22T14:55:04.935Z,32.55
2022-08-22T15:00:38.724Z,32.34
2022-08-22T15:05:47.318Z,31.96
2022-08-22T15:11:06.838Z,31.84
2022-08-22T15:16:24.379Z,31.57
2022-08-22T15:21:41.389Z,31.57
2022-08-22T15:27:01.787Z,31.26
2022-08-22T15:32:10.431Z,30.97
2022-08-22T15:37:27.861Z,30.95
2022-08-22T15:42:33.410Z,30.92
2022-08-22T15:47:56.823Z,30.97
2022-08-22T15:53:36.566Z,30.67
2022-08-22T15:59:07.860Z,30.81
2022-08-22T16:04:16.494Z,30.64
2022-08-22T16:10:04.591Z,30.67
2022-08-22T16:15:59.352Z,30.23
2022-08-22T16:21:17.857Z,29.77
2022-08-22T16:26:22.144Z,29.83
2022-08-22T16:31:47.148Z,29.65
2022-08-22T16:37:18.383Z,29.27
2022-08-22T16:42:19.601Z,29.33
2022-08-22T16:47:22.589Z,29.05
2022-08-22T16:52:24.074Z,29.15
2022-08-22T16:57:28.579Z,28.83
2022-08-22T17:03:24.371Z,28.92
2022-08-22T17:08:55.772Z,28.78
2022-08-22T17:14:13.094Z,28.89
2022-08-22T17:19:34.710Z,28.83
2022-08-22T17:24:46.876Z,28.68
2022-08-22T17:29:57.183Z,28.41
2022-08-22T17:35:00.296Z,28.44
2022-08-22T17:40:00.039Z,28.34
2022-08-22T17:45:08.719Z,28.04
2022-08-22T17:50:33.489Z,27.59
2022-08-22T17:55:58.421Z,27.48
2022-08-22T18:01:15.005Z,27.12
2022-08-22T18:06:26.398Z,27.42
2022-08-22T18:12:14.790Z,27.44
2022-08-22T18:17:29.274Z,27.01
2022-08-22T18:22:41.094Z,27.14
2022-08-22T18:27:54.744Z,26.65
2022-08-22T18:33:18.764Z,27.08
2022-08-22T18:38:36.319Z,26.76
2022-08-22T18:43:47.337Z,26.43
2022-08-22T18:49:18.043Z,26.09
2022-08-22T18:54:42.755Z,26.34
2022-08-22T19:00:17.245Z,26.34
2022-08-22T19:05:55.993Z,25.93
2022-08-22T19:11:14.732Z,25.62
2022-08-22T19:16:47.247Z,25.73
2022-08-22T19:22:35.737Z,25.59
2022-08-22T19:28:07.018Z,25.87
2022-08-22T19:33:41.289Z,25.26
2022-08-22T19:39:04.963Z,25.52
2022-08-22T19:44:34.616Z,25.60
2022-08-22T19:49:44.360Z,25.74
2022-08-22T19:55:05.092Z,25.13
2022-08-22T20:00:12.061Z,25.34
2022-08-22T20:05:35.198Z,25.44
2022-08-22T20:11:06.565Z,25.15
2022-08-22T20:16:15.101Z,25.26
2022-08-22T20:21:49.003Z,25.01
2022-08-22T20:27:12.948Z,24.98
2022-08-22T20:32:15.824Z,25.08
2022-08-22T20:37:35.999Z,24.70
2022-08-22T20:42:52.116Z,25.02
2022-08-22T20:47:51.125Z,25.02
2022-08-22T20:52:54.678Z,25.08
2022-08-22T20:58:00.214Z,24.97
2022-08-22T21:03:01.039Z,25.12
2022-08-22T21:08:13.182Z,25.03
2022-08-22T21:13:27.710Z,24.70
2022-08-22T21:18:30.247Z,25.20
2022-08-22T21:23:29.851Z,25.21
2022-08-22T21:28:42.206Z,25.04
2022-08-22T21:33:46.649Z,24.71
2022-08-22T21:38:55.733Z,25.07
2022-08-22T21:43:53.888Z,24.64
2022-08-22T21:49:04.981Z,24.20
2022-08-22T21:54:27.194Z,24.21
2022-08-22T21:59:51.417Z,24.11
2022-08-22T22:05:01.875Z,24.19
2022-08-22T22:10:05.009Z,24.13
2022-08-22T22:15:07.313Z,23.66
2022-08-22T22:20:07.289Z,23.92
2022-08-22T22:25:06.770Z,23.62
2022-08-22T22:30:28.209Z,23.46
2022-08-22T22:35:31.312Z,23.35
2022-08-22T22:40:35.740Z,23.21
2022-08-22T22:45:38.948Z,23.30
2022-08-22T22:50:41.267Z,23.51
2022-08-22T22:56:00.255Z,23.45
2022-08-22T23:01:17.002Z,23.30
2022-08-22T23:06:19.073Z,23.30
2022-08-22T23:11:24.149Z,23.13
2022-08-22T23:16:26.737Z,23.54
2022-08-22T23:21:28.861Z,23.70
2022-08-22T23:26:33.805Z,23.73
2022-08-22T23:31:43.202Z,23.44
2022-08-22T23:36:47.969Z,23.61
2022-08-22T23:41:50.175Z,23.37
2022-08-22T23:46:53.200Z,23.34
2022-08-22T23:51:55.828Z,23.42
2022-08-22T23:56:56.980Z,23.05
